Time;durP1;ratioP1;P1;durP2;ratioP2;P2;SDS_P1;SDS_P2;PMS_P1;PMS_P2;Temp;Humidity;BMP_temperature;BMP_pressure;BME280_temperature;BME280_humidity;BME280_pressure;Samples;Min_cycle;Max_cycle;Signal;HPM_P1;HPM_P2
2023/05/27 00:02:46;;;;;;;31.95;16.50;;;;;;;23.94;62.36;99822.56;1724727;83;21340;-82
2023/05/27 00:05:53;;;;;;;25.00;15.85;;;;;;;24.15;61.53;99817.30;1725924;83;21341;-82
2023/05/27 00:08:59;;;;;;;25.45;15.35;;;;;;;24.05;61.75;99818.69;1729420;83;21278;-82
2023/05/27 00:12:06;;;;;;;24.80;15.38;;;;;;;23.92;62.17;99821.45;1730815;83;21321;-82
2023/05/27 00:15:13;;;;;;;27.10;14.60;;;;;;;23.98;61.91;99819.50;1730521;83;21321;-82
2023/05/27 00:18:19;;;;;;;28.60;15.13;;;;;;;23.76;62.48;99813.30;1731745;83;21281;-82
2023/05/27 00:21:25;;;;;;;30.30;14.90;;;;;;;23.81;62.26;99809.16;1731408;82;21830;-82
2023/05/27 00:24:32;;;;;;;28.65;13.83;;;;;;;23.65;62.13;99808.25;1737511;82;21298;-82
2023/05/27 00:27:38;;;;;;;31.57;14.80;;;;;;;23.82;61.95;99807.47;1736140;82;21348;-82
2023/05/27 00:30:45;;;;;;;28.85;15.03;;;;;;;23.67;62.36;99807.44;1736106;82;21336;-82
2023/05/27 00:33:51;;;;;;;30.55;15.13;;;;;;;23.79;62.05;99799.63;1737340;82;21289;-83
2023/05/27 00:36:57;;;;;;;30.45;14.45;;;;;;;23.76;62.15;99799.34;1736600;82;21324;-82
2023/05/27 00:40:02;;;;;;;30.25;15.03;;;;;;;23.74;62.37;99801.02;1737185;82;21325;-82
2023/05/27 00:43:09;;;;;;;36.83;15.95;;;;;;;23.59;62.90;99799.00;1737518;82;21655;-82
2023/05/27 00:46:15;;;;;;;25.90;13.95;;;;;;;23.48;63.36;99795.91;1736983;82;21305;-82
2023/05/27 00:49:14;;;;;;;27.90;14.13;;;;;;;23.59;63.27;99796.20;1737636;82;21309;-82
2023/05/27 00:52:21;;;;;;;23.10;13.30;;;;;;;23.75;62.75;99797.67;1736336;82;21653;-82
2023/05/27 00:55:26;;;;;;;23.50;13.20;;;;;;;23.80;62.57;99800.47;1737465;82;21853;-83
2023/05/27 00:58:32;;;;;;;23.00;13.00;;;;;;;23.77;62.34;99792.66;1737466;82;21293;-83
2023/05/27 01:01:38;;;;;;;27.90;14.63;;;;;;;23.79;62.05;99794.05;1736386;82;21297;-83
2023/05/27 01:04:46;;;;;;;28.27;13.60;;;;;;;23.78;62.35;99792.38;1737519;82;21818;-83
2023/05/27 01:08:13;;;;;;;27.42;13.40;;;;;;;23.83;62.01;99795.17;1737410;82;21269;-83
2023/05/27 01:11:21;;;;;;;27.32;15.28;;;;;;;23.67;62.73;99791.52;1736685;82;21348;-82
2023/05/27 01:14:27;;;;;;;27.85;15.03;;;;;;;23.59;62.91;99789.23;1737385;82;21317;-82
2023/05/27 01:17:37;;;;;;;26.82;15.03;;;;;;;23.69;62.92;99790.67;1736224;82;21336;-83
2023/05/27 01:20:43;;;;;;;36.93;16.42;;;;;;;23.74;62.91;99785.66;1737184;82;21297;-83
2023/05/27 01:23:50;;;;;;;31.95;15.32;;;;;;;23.95;61.94;99786.55;1728162;82;21894;-83
2023/05/27 01:26:56;;;;;;;34.83;17.30;;;;;;;23.77;62.44;99791.27;1725244;83;21314;-83
2023/05/27 01:30:02;;;;;;;35.70;17.95;;;;;;;23.66;62.92;99781.45;1725687;83;21262;-83
2023/05/27 01:33:20;;;;;;;36.48;17.15;;;;;;;23.44;63.54;99786.39;1725925;83;21349;-83
2023/05/27 01:36:27;;;;;;;32.08;16.50;;;;;;;23.56;63.14;99782.78;1725586;83;21329;-82
2023/05/27 01:39:33;;;;;;;36.50;17.62;;;;;;;23.53;63.46;99781.13;1730802;83;21298;-82
2023/05/27 01:42:42;;;;;;;38.02;18.15;;;;;;;23.52;63.39;99783.61;1730446;83;21407;-82
2023/05/27 01:45:48;;;;;;;38.15;17.25;;;;;;;23.42;63.78;99782.46;1731578;83;21322;-82
2023/05/27 01:48:54;;;;;;;37.20;17.85;;;;;;;23.52;63.28;99773.28;1731744;83;21295;-83
2023/05/27 01:51:59;;;;;;;37.48;19.00;;;;;;;23.56;63.24;99777.20;1730764;83;21337;-83
2023/05/27 01:55:05;;;;;;;30.08;17.25;;;;;;;23.70;62.83;99775.59;1731701;83;21354;-82
2023/05/27 01:58:10;;;;;;;33.80;17.32;;;;;;;23.78;62.38;99777.58;1731711;83;21282;-81
2023/05/27 02:01:17;;;;;;;28.55;16.30;;;;;;;23.64;62.76;99777.27;1731011;83;21301;-82
2023/05/27 02:04:25;;;;;;;36.85;18.35;;;;;;;23.47;63.01;99777.45;1731833;83;21305;-82
2023/05/27 02:07:31;;;;;;;41.60;19.82;;;;;;;23.80;62.03;99778.13;1730409;83;21317;-83
2023/05/27 02:10:31;;;;;;;36.20;18.57;;;;;;;23.64;62.49;99781.45;1731849;83;21911;-82
2023/05/27 02:13:37;;;;;;;38.92;20.40;;;;;;;23.51;62.96;99779.14;1731786;83;21293;-83
2023/05/27 02:16:42;;;;;;;35.20;19.65;;;;;;;23.54;62.96;99783.63;1730926;83;21302;-82
2023/05/27 02:19:49;;;;;;;31.27;17.70;;;;;;;23.65;62.70;99782.56;1731877;83;21294;-82
2023/05/27 02:22:57;;;;;;;;;;;;;;;23.95;61.81;99787.39;1732876;83;21337;-82
2023/05/27 02:26:03;;;;;;;36.65;17.92;;;;;;;24.54;59.91;99783.79;1695584;84;20279;-82
2023/05/27 02:29:09;;;;;;;32.00;16.65;;;;;;;25.39;56.99;99781.06;1695764;84;21328;-82
2023/05/27 02:32:14;;;;;;;44.05;19.48;;;;;;;25.35;56.96;99785.55;1695066;84;21312;-83
2023/05/27 02:35:24;;;;;;;32.08;16.90;;;;;;;25.18;57.35;99784.52;1695760;84;21285;-83
2023/05/27 02:38:30;;;;;;;34.55;17.00;;;;;;;24.89;58.16;99778.67;1693699;84;21748;-82
2023/05/27 02:41:35;;;;;;;30.95;17.45;;;;;;;24.93;58.29;99772.80;1689530;85;22175;-82
2023/05/27 02:44:41;;;;;;;31.40;18.52;;;;;;;25.19;57.43;99771.63;1690204;85;21298;-82
2023/05/27 02:47:48;;;;;;;33.42;17.77;;;;;;;25.25;57.33;99768.24;1688909;85;21360;-82
2023/05/27 02:50:47;;;;;;;31.87;18.30;;;;;;;25.52;56.74;99769.80;1689987;85;21348;-82
2023/05/27 02:53:54;;;;;;;38.70;17.90;;;;;;;25.64;56.32;99775.34;1690079;85;21325;-81
2023/05/27 02:57:00;;;;;;;30.48;17.87;;;;;;;25.87;55.59;99771.57;1689265;85;21961;-83
2023/05/27 03:00:05;;;;;;;34.92;17.77;;;;;;;26.09;55.12;99771.97;1690015;85;21253;-82
2023/05/27 03:03:13;;;;;;;29.63;17.45;;;;;;;26.27;54.40;99765.40;1689091;85;21949;-82
2023/05/27 03:06:19;;;;;;;29.10;15.70;;;;;;;25.07;56.39;99764.11;1689581;85;21377;-83
2023/05/27 03:09:20;;;;;;;30.32;17.37;;;;;;;25.46;56.92;99760.60;1690019;85;21317;-82
2023/05/27 03:12:13;;;;;;;36.93;18.50;;;;;;;24.80;59.21;99767.82;1688926;85;21336;-83
2023/05/27 03:14:59;;;;;;;30.20;17.55;;;;;;;24.95;59.17;99760.22;1690009;85;21846;-82
2023/05/27 03:17:51;;;;;;;26.57;15.85;;;;;;;24.74;60.16;99760.81;1689089;85;21301;-82
2023/05/27 03:20:57;;;;;;;36.00;16.32;;;;;;;24.87;59.83;99760.79;1689956;85;21341;-82
2023/05/27 03:24:03;;;;;;;25.23;15.50;;;;;;;24.80;60.41;99767.26;1688709;85;21321;-83
2023/05/27 03:27:09;;;;;;;29.72;16.30;;;;;;;24.69;60.91;99764.19;1700064;84;21328;-82
2023/05/27 03:30:15;;;;;;;37.25;17.45;;;;;;;24.65;61.11;99767.27;1701030;84;21286;-82
2023/05/27 03:33:20;;;;;;;29.00;16.50;;;;;;;25.42;59.04;99770.13;1700916;84;21321;-82
2023/05/27 03:36:20;;;;;;;34.83;19.10;;;;;;;25.71;58.08;99773.05;1700542;84;21333;-83
2023/05/27 03:39:25;;;;;;;32.05;17.32;;;;;;;25.42;59.04;99766.50;1695970;84;21329;-82
2023/05/27 03:42:31;;;;;;;32.93;18.95;;;;;;;25.09;60.18;99772.23;1693359;84;21312;-82
2023/05/27 03:45:40;;;;;;;37.97;19.97;;;;;;;24.87;61.06;99772.55;1694664;84;21388;-82
2023/05/27 03:48:47;;;;;;;35.55;19.40;;;;;;;24.80;61.37;99770.62;1694201;84;22662;-82
2023/05/27 03:51:54;;;;;;;31.23;18.80;;;;;;;24.55;62.26;99770.92;1693726;84;21348;-82
2023/05/27 03:55:01;;;;;;;32.38;19.40;;;;;;;24.40;63.18;99777.93;1694415;84;21309;-82
2023/05/27 03:58:07;;;;;;;35.83;19.95;;;;;;;24.40;63.39;99777.36;1694466;84;21297;-82
2023/05/27 04:01:13;;;;;;;34.48;19.80;;;;;;;24.76;62.66;99773.70;1694199;84;21336;-82
2023/05/27 04:04:18;;;;;;;37.20;20.37;;;;;;;24.70;62.83;99781.23;1693513;84;21330;-83
2023/05/27 04:07:19;;;;;;;36.70;20.60;;;;;;;24.69;62.88;99776.20;1692970;84;21356;-83
2023/05/27 04:10:25;;;;;;;52.58;26.30;;;;;;;24.65;63.10;99779.84;1693929;84;21286;-83
2023/05/27 04:13:32;;;;;;;56.95;27.52;;;;;;;25.00;62.11;99767.75;1693430;84;21337;-82
2023/05/27 04:16:37;;;;;;;62.27;30.97;;;;;;;24.74;62.75;99773.40;1693249;84;21364;-82
2023/05/27 04:19:44;;;;;;;67.45;33.98;;;;;;;24.55;63.52;99778.47;1693924;84;21325;-82
2023/05/27 04:22:51;;;;;;;54.15;29.12;;;;;;;24.74;63.44;99778.16;1695163;84;21290;-82
2023/05/27 04:25:57;;;;;;;60.23;28.70;;;;;;;24.43;64.61;99773.19;1699144;82;21320;-82
2023/05/27 04:29:05;;;;;;;62.45;30.12;;;;;;;24.57;64.58;99786.03;1720054;83;21295;-82
2023/05/27 04:32:12;;;;;;;60.50;31.07;;;;;;;24.54;64.67;99781.83;1693554;84;21344;-82
2023/05/27 04:35:17;;;;;;;56.23;30.10;;;;;;;24.54;65.00;99781.83;1701300;84;21968;-83
2023/05/27 04:38:24;;;;;;;57.20;29.40;;;;;;;24.75;64.21;99785.45;1712854;81;21834;-82
2023/05/27 04:41:32;;;;;;;49.08;26.17;;;;;;;25.00;63.12;99791.53;1731734;83;21225;-82
2023/05/27 04:44:40;;;;;;;51.70;25.32;;;;;;;24.98;63.36;99789.56;1731384;83;21341;-82
2023/05/27 04:47:48;;;;;;;42.67;25.10;;;;;;;25.24;62.47;99791.20;1731911;83;21506;-82
2023/05/27 04:50:54;;;;;;;46.50;23.30;;;;;;;25.31;62.11;99792.27;1732153;83;21320;-82
2023/05/27 04:54:00;;;;;;;38.42;21.05;;;;;;;25.64;61.36;99792.14;1714031;81;21301;-82
2023/05/27 04:57:07;;;;;;;41.18;21.55;;;;;;;25.49;62.00;99795.00;1701590;84;21348;-82
2023/05/27 05:00:20;;;;;;;40.78;20.20;;;;;;;25.64;61.32;99794.95;1702511;84;21861;-81
2023/05/27 05:03:20;;;;;;;31.10;17.62;;;;;;;25.60;61.56;99789.64;1702263;84;21276;-82
2023/05/27 05:06:26;;;;;;;25.97;15.55;;;;;;;25.60;61.39;99799.45;1702216;84;21323;-82
2023/05/27 05:09:32;;;;;;;29.48;16.25;;;;;;;25.41;61.77;99799.25;1726614;81;21803;-82
2023/05/27 05:12:39;;;;;;;28.50;15.45;;;;;;;25.61;60.54;99804.48;1730853;83;21356;-82
2023/05/27 05:15:46;;;;;;;31.15;17.30;;;;;;;25.46;61.08;99804.00;1731080;83;21320;-82
2023/05/27 05:18:53;;;;;;;30.52;17.42;;;;;;;25.32;61.17;99799.58;1731914;83;21371;-82
2023/05/27 05:22:01;;;;;;;25.48;16.27;;;;;;;25.58;60.27;99804.48;1731296;83;21360;-83
2023/05/27 05:25:07;;;;;;;28.23;16.37;;;;;;;25.62;59.80;99804.75;1731321;83;21312;-82
2023/05/27 05:28:13;;;;;;;33.23;17.70;;;;;;;25.42;60.47;99811.28;1716824;81;21783;-82
2023/05/27 05:31:21;;;;;;;30.15;16.48;;;;;;;25.52;60.50;99809.84;1713655;84;21574;-82
2023/05/27 05:34:27;;;;;;;25.43;15.08;;;;;;;25.89;59.71;99815.55;1712914;84;21321;-82
2023/05/27 05:37:33;;;;;;;30.70;16.42;;;;;;;26.16;58.40;99822.08;1713010;84;21305;-82
2023/05/27 05:40:40;;;;;;;34.05;17.12;;;;;;;25.95;58.89;99825.59;1714197;84;21968;-82
2023/05/27 05:43:47;;;;;;;29.63;17.62;;;;;;;25.96;58.82;99835.67;1714176;84;21312;-81
2023/05/27 05:46:54;;;;;;;26.87;16.00;;;;;;;25.72;59.42;99837.73;1713267;84;21317;-82
2023/05/27 05:50:00;;;;;;;34.23;16.80;;;;;;;25.54;60.19;99829.97;1713460;84;21368;-82
2023/05/27 05:53:05;;;;;;;25.00;16.25;;;;;;;25.70;60.10;99830.19;1706990;82;21290;-82
2023/05/27 05:56:11;;;;;;;28.45;16.40;;;;;;;25.81;59.84;99821.77;1684944;85;21313;-83
2023/05/27 05:59:18;;;;;;;30.02;15.90;;;;;;;25.95;59.81;99830.63;1685568;85;21909;-82
2023/05/27 06:02:25;;;;;;;21.90;15.58;;;;;;;26.20;58.70;99826.81;1683027;85;21340;-83
2023/05/27 06:05:31;;;;;;;20.00;12.95;;;;;;;26.41;58.05;99829.48;1683798;85;21325;-83
2023/05/27 06:08:39;;;;;;;20.08;13.05;;;;;;;25.84;59.58;99835.20;1697490;83;21330;-83
2023/05/27 06:11:45;;;;;;;26.62;12.63;;;;;;;26.00;58.71;99836.20;1712787;84;21332;-83
2023/05/27 06:14:52;;;;;;;24.43;14.15;;;;;;;26.05;58.26;99835.33;1714071;84;21299;-82
2023/05/27 06:18:00;;;;;;;20.30;10.70;;;;;;;26.15;57.59;99839.46;1714065;84;21889;-83
2023/05/27 06:21:06;;;;;;;20.70;11.90;;;;;;;26.20;57.48;99835.22;1713027;84;21336;-83
2023/05/27 06:24:19;;;;;;;22.50;13.13;;;;;;;26.37;57.01;99836.80;1666985;84;21301;-82
2023/05/27 06:27:29;;;;;;;15.35;9.75;;;;;;;26.59;56.78;99834.98;1683463;84;21298;-82
2023/05/27 06:30:36;;;;;;;29.60;10.82;;;;;;;26.79;56.06;99828.33;1694697;84;21196;-83
2023/05/27 06:33:46;;;;;;;16.23;9.65;;;;;;;26.97;55.37;99830.39;1694749;84;21253;-82
2023/05/27 06:36:51;;;;;;;22.70;11.53;;;;;;;27.14;54.88;99835.56;1676959;84;21345;-82
2023/05/27 06:39:55;;;;;;;21.20;10.45;;;;;;;27.43;53.65;99832.69;1694439;81;21286;-82
2023/05/27 06:43:03;;;;;;;19.52;10.28;;;;;;;27.73;52.60;99830.94;1694429;84;21305;-82
2023/05/27 06:46:13;;;;;;;16.05;8.35;;;;;;;28.19;51.03;99833.66;1693605;84;21298;-82
2023/05/27 06:49:19;;;;;;;21.00;8.35;;;;;;;28.55;49.44;99837.32;1694555;84;21350;-83
2023/05/27 06:52:26;;;;;;;12.50;6.50;;;;;;;28.51;49.06;99832.87;1693521;84;21767;-82
2023/05/27 06:55:49;;;;;;;15.58;6.72;;;;;;;28.51;48.38;99835.14;1694614;84;21329;-82
2023/05/27 06:58:59;;;;;;;17.70;7.10;;;;;;;28.68;47.82;99831.74;1692779;84;21301;-83
2023/05/27 07:02:04;;;;;;;18.15;8.48;;;;;;;28.91;47.08;99818.67;1693646;84;21294;-82
2023/05/27 07:05:06;;;;;;;15.68;7.60;;;;;;;29.16;46.95;99819.34;1694531;84;21293;-82
2023/05/27 07:07:58;;;;;;;18.12;7.58;;;;;;;29.25;46.69;99821.70;1694614;81;21313;-82
2023/05/27 07:10:44;;;;;;;13.58;6.47;;;;;;;29.37;45.77;99831.89;1693387;84;21332;-82
2023/05/27 07:13:51;;;;;;;13.20;6.03;;;;;;;29.63;44.87;99822.92;1694585;84;21878;-82
2023/05/27 07:16:57;;;;;;;13.32;5.37;;;;;;;29.71;43.81;99821.61;1693672;84;21328;-83
2023/05/27 07:20:04;;;;;;;10.70;5.60;;;;;;;29.64;44.11;99827.40;1694434;84;21326;-83
2023/05/27 07:23:11;;;;;;;12.73;6.22;;;;;;;29.62;44.44;99829.71;1703877;83;21897;-83
2023/05/27 07:26:21;;;;;;;10.78;5.62;;;;;;;29.88;44.17;99829.42;1731746;83;21392;-82
2023/05/27 07:29:26;;;;;;;18.02;6.15;;;;;;;29.90;44.31;99830.50;1728740;83;21333;-82
2023/05/27 07:32:42;;;;;;;13.95;5.85;;;;;;;30.23;43.48;99831.17;1722761;83;21873;-83
2023/05/27 07:35:49;;;;;;;13.83;5.47;;;;;;;30.37;42.96;99826.89;1722925;83;21311;-82
2023/05/27 07:38:55;;;;;;;11.15;5.08;;;;;;;30.22;42.93;99828.10;1724117;83;21290;-83
2023/05/27 07:42:02;;;;;;;11.33;5.08;;;;;;;30.26;42.90;99829.97;1723283;83;21933;-83
2023/05/27 07:45:07;;;;;;;15.32;5.55;;;;;;;30.33;42.45;99839.96;1724278;83;21292;-83
2023/05/27 07:48:14;;;;;;;9.43;5.20;;;;;;;30.54;41.87;99838.31;1724143;83;21825;-83
2023/05/27 07:51:23;;;;;;;15.40;5.25;;;;;;;30.76;41.80;99838.90;1723898;83;21869;-83
2023/05/27 07:54:29;;;;;;;13.60;5.30;;;;;;;30.83;41.52;99837.05;1724055;83;21296;-83
2023/05/27 07:57:41;;;;;;;14.50;5.58;;;;;;;31.14;41.19;99842.69;1722097;83;22291;-83
2023/05/27 08:00:49;;;;;;;9.73;5.00;;;;;;;31.25;40.66;99839.84;1723955;83;21359;-82
2023/05/27 08:03:55;;;;;;;14.25;6.25;;;;;;;31.24;40.55;99843.26;1722883;83;21213;-82
2023/05/27 08:07:13;;;;;;;13.18;4.97;;;;;;;30.94;41.42;99838.43;1720302;83;21363;-83
2023/05/27 08:10:39;;;;;;;10.95;4.87;;;;;;;30.67;41.88;99844.45;1724130;83;21321;-82
2023/05/27 08:14:03;;;;;;;14.07;4.67;;;;;;;30.67;41.78;99844.45;1724155;83;21265;-82
2023/05/27 08:17:09;;;;;;;12.40;4.97;;;;;;;31.09;41.15;99849.30;1722167;83;21316;-83
2023/05/27 08:20:24;;;;;;;10.32;4.72;;;;;;;31.17;40.37;99846.28;1720020;83;21545;-83
2023/05/27 08:23:38;;;;;;;15.72;5.42;;;;;;;31.60;40.00;99837.17;1681877;82;21301;-83
2023/05/27 08:26:56;;;;;;;17.25;5.20;;;;;;;31.86;40.02;99845.18;1680789;85;21317;-82
2023/05/27 08:30:03;;;;;;;12.15;5.22;;;;;;;32.02;39.64;99842.11;1686628;84;21325;-83
2023/05/27 08:33:19;;;;;;;15.30;5.85;;;;;;;32.21;39.26;99840.38;1694454;84;21292;-82
2023/05/27 08:36:14;;;;;;;12.25;5.87;;;;;;;32.55;38.56;99840.98;1694162;84;21337;-83
2023/05/27 08:39:20;;;;;;;12.58;5.53;;;;;;;32.52;38.52;99844.50;1721794;83;21209;-82
2023/05/27 08:42:28;;;;;;;12.68;4.92;;;;;;;32.71;38.37;99845.56;1731303;83;21304;-81
2023/05/27 08:45:35;;;;;;;11.85;5.28;;;;;;;32.70;38.33;99845.31;1732299;83;21296;-82
2023/05/27 08:51:27;;;;;;;11.83;5.40;;;;;;;32.56;38.18;99839.01;1862263;76;22246;-83
2023/05/27 08:54:33;;;;;;;12.10;6.37;;;;;;;32.45;38.06;99848.41;1808042;79;21291;-83
2023/05/27 08:57:39;;;;;;;16.70;5.25;;;;;;;32.31;38.44;99844.88;1737737;82;21359;-83
2023/05/27 09:00:46;;;;;;;12.60;6.35;;;;;;;32.31;38.44;99844.88;1752992;82;21315;-82
2023/05/27 09:03:52;;;;;;;19.85;6.22;;;;;;;32.66;37.96;99840.07;1752672;82;21295;-83
2023/05/27 09:06:58;;;;;;;15.55;6.20;;;;;;;32.58;37.82;99845.16;1753076;82;21303;-83
2023/05/27 09:10:10;;;;;;;12.43;4.90;;;;;;;32.93;37.28;99843.11;1735501;82;21378;-83
2023/05/27 09:13:14;;;;;;;14.25;5.60;;;;;;;33.39;36.14;99840.63;1734743;82;21327;-83
2023/05/27 09:16:12;;;;;;;17.40;6.33;;;;;;;33.44;36.01;99837.63;1735496;82;21656;-82
2023/05/27 09:19:04;;;;;;;14.07;5.60;;;;;;;33.37;36.65;99834.48;1735995;82;21322;-82
2023/05/27 09:21:54;;;;;;;14.58;5.47;;;;;;;33.55;36.60;99809.16;1735248;82;21346;-83
2023/05/27 09:24:46;;;;;;;19.55;6.03;;;;;;;33.55;36.60;99809.16;1760549;81;21275;-83
2023/05/27 09:27:33;;;;;;;12.60;5.22;;;;;;;33.81;35.92;99809.81;1721052;82;21860;-83
2023/05/27 09:30:28;;;;;;;11.18;5.10;;;;;;;33.70;35.86;99795.80;1744517;82;21883;-82
2023/05/27 09:33:34;;;;;;;17.00;5.08;;;;;;;33.76;35.52;99804.94;1742572;82;21316;-82
2023/05/27 09:36:40;;;;;;;13.20;4.42;;;;;;;33.49;35.78;99804.84;1744606;82;21323;-82
2023/05/27 09:39:48;;;;;;;12.80;5.03;;;;;;;33.49;35.72;99809.09;1750438;82;21868;-82
2023/05/27 09:42:55;;;;;;;8.85;4.33;;;;;;;33.80;35.39;99803.91;1722521;83;21308;-83
2023/05/27 09:46:08;;;;;;;9.28;4.12;;;;;;;33.93;34.53;99808.25;1722704;83;21308;-83
2023/05/27 09:49:14;;;;;;;10.03;4.25;;;;;;;33.93;34.53;99808.25;1722635;83;21284;-83
2023/05/27 09:52:21;;;;;;;6.87;3.70;;;;;;;33.54;35.00;99797.55;1700715;83;21372;-82
2023/05/27 09:55:28;;;;;;;7.12;3.80;;;;;;;33.97;34.14;99796.46;1722669;83;21289;-82
2023/05/27 09:58:33;;;;;;;10.63;3.45;;;;;;;33.73;34.66;99795.09;1721250;83;21308;-82
2023/05/27 10:01:40;;;;;;;13.45;4.10;;;;;;;33.93;34.53;99779.89;1721160;83;21352;-82
2023/05/27 10:04:48;;;;;;;10.23;4.53;;;;;;;33.45;35.56;99780.59;1722150;83;21837;-82
2023/05/27 10:07:53;;;;;;;8.33;3.80;;;;;;;33.57;35.57;99777.86;1722465;83;21305;-82
2023/05/27 10:11:01;;;;;;;13.10;4.05;;;;;;;33.64;35.27;99769.39;1726058;83;21292;-83
2023/05/27 10:14:07;;;;;;;7.47;3.92;;;;;;;33.55;34.80;99766.64;1725777;83;21300;-83
2023/05/27 10:17:12;;;;;;;10.43;4.83;;;;;;;33.60;35.05;99759.94;1725272;83;21316;-82
2023/05/27 10:20:18;;;;;;;13.55;4.58;;;;;;;33.73;34.81;99767.33;1726961;83;21293;-82
2023/05/27 10:23:28;;;;;;;12.00;3.87;;;;;;;33.73;34.81;99767.33;1729087;83;21813;-83
2023/05/27 10:26:21;;;;;;;13.65;4.05;;;;;;;33.72;34.90;99765.09;1701060;84;21888;-83
2023/05/27 10:29:14;;;;;;;9.35;4.17;;;;;;;33.75;35.36;99764.41;1701561;84;21304;-81
2023/05/27 10:32:07;;;;;;;9.45;4.15;;;;;;;33.82;35.12;99757.58;1700540;84;21343;-81
2023/05/27 10:34:52;;;;;;;12.00;4.53;;;;;;;33.76;35.50;99754.72;1700226;84;21338;-81
2023/05/27 10:37:46;;;;;;;7.25;4.25;;;;;;;33.83;35.48;99752.17;1704267;83;21352;-82
2023/05/27 10:40:52;;;;;;;;;;;;;;;33.67;34.92;99744.02;1728856;83;21913;-82
2023/05/27 10:44:05;;;;;;;8.98;3.58;;;;;;;33.74;35.36;99742.91;1758058;81;20263;-82
2023/05/27 10:47:19;;;;;;;5.90;3.52;;;;;;;33.66;36.16;99743.78;1726986;83;21877;-82
2023/05/27 10:50:25;;;;;;;7.87;3.60;;;;;;;33.88;35.90;99736.09;1726337;83;21288;-82
2023/05/27 10:53:34;;;;;;;7.55;3.58;;;;;;;33.87;34.65;99738.70;1722463;83;21313;-82
2023/05/27 10:56:39;;;;;;;11.40;3.60;;;;;;;33.83;34.23;99731.50;1722087;83;21313;-82
2023/05/27 11:00:03;;;;;;;7.37;3.55;;;;;;;33.72;34.24;99721.13;1722101;83;21284;-81
2023/05/27 11:03:08;;;;;;;6.83;3.45;;;;;;;33.48;34.68;99716.73;1720762;83;21854;-83
2023/05/27 11:06:16;;;;;;;5.60;3.40;;;;;;;33.48;34.68;99716.73;1721393;83;21317;-82
2023/05/27 11:09:22;;;;;;;9.58;4.33;;;;;;;33.39;34.98;99707.42;1722185;83;21841;-82
2023/05/27 11:12:31;;;;;;;10.28;4.30;;;;;;;33.32;35.36;99709.39;1722839;83;21344;-82
2023/05/27 11:15:36;;;;;;;7.62;3.65;;;;;;;33.15;35.09;99708.89;1724385;83;21289;-83
2023/05/27 11:18:55;;;;;;;7.42;3.90;;;;;;;32.96;35.35;99710.73;1724337;83;21336;-83
2023/05/27 11:22:01;;;;;;;8.48;4.08;;;;;;;32.81;35.50;99707.03;1723455;83;21925;-83
2023/05/27 11:25:09;;;;;;;9.98;3.33;;;;;;;32.41;35.81;99705.07;1742084;82;21372;-82
2023/05/27 11:28:24;;;;;;;6.40;3.33;;;;;;;32.25;36.05;99701.33;1742098;82;21280;-82
2023/05/27 11:31:40;;;;;;;6.83;3.33;;;;;;;31.75;37.01;99697.59;1741467;82;21320;-82
2023/05/27 11:34:45;;;;;;;10.78;4.95;;;;;;;31.48;37.41;99704.41;1742425;82;21232;-82
2023/05/27 11:37:58;;;;;;;12.40;4.67;;;;;;;31.02;39.18;99706.34;1741153;82;21316;-82
2023/05/27 11:41:05;;;;;;;11.48;5.22;;;;;;;30.44;40.36;99704.53;1723368;83;21847;-82
2023/05/27 11:44:14;;;;;;;10.08;4.97;;;;;;;29.79;40.99;99709.55;1706908;83;21309;-82
2023/05/27 11:47:20;;;;;;;10.20;5.10;;;;;;;29.01;42.30;99706.47;1721753;83;21344;-82
2023/05/27 11:50:27;;;;;;;9.13;4.83;;;;;;;28.68;43.21;99714.97;1721974;83;21313;-81
2023/05/27 11:53:34;;;;;;;12.28;4.75;;;;;;;28.81;43.71;99721.77;1723038;83;21885;-82
2023/05/27 11:56:40;;;;;;;8.28;4.75;;;;;;;28.89;44.28;99730.04;1726660;83;21320;-83
2023/05/27 11:59:46;;;;;;;15.78;5.03;;;;;;;28.63;45.13;99717.05;1727318;83;21351;-82
2023/05/27 12:02:53;;;;;;;14.73;5.60;;;;;;;28.65;45.34;99720.38;1725961;83;21288;-82
2023/05/27 12:05:59;;;;;;;8.45;4.85;;;;;;;28.56;44.92;99720.29;1725967;83;21908;-83
2023/05/27 12:09:04;;;;;;;13.70;5.30;;;;;;;28.32;45.40;99733.04;1726259;83;21328;-83
2023/05/27 12:12:09;;;;;;;13.10;4.85;;;;;;;27.87;47.06;99741.68;1726274;83;21868;-83
2023/05/27 12:15:15;;;;;;;6.20;4.42;;;;;;;27.74;47.21;99742.70;1727347;83;21292;-82
2023/05/27 12:18:23;;;;;;;11.03;3.55;;;;;;;27.53;46.29;99755.35;1727327;83;21309;-83
2023/05/27 12:21:28;;;;;;;6.15;3.70;;;;;;;27.28;47.08;99755.67;1726784;83;21312;-83
2023/05/27 12:24:34;;;;;;;11.70;4.25;;;;;;;26.83;49.25;99757.31;1727243;83;21313;-83
2023/05/27 12:27:41;;;;;;;12.15;4.87;;;;;;;26.73;51.90;99763.03;1726006;83;21327;-82
2023/05/27 12:30:48;;;;;;;10.32;4.40;;;;;;;26.61;53.79;99762.59;1725997;83;21315;-83
2023/05/27 12:33:54;;;;;;;11.33;4.47;;;;;;;26.46;54.27;99771.98;1726356;83;21318;-82
2023/05/27 12:36:59;;;;;;;11.40;5.05;;;;;;;26.41;55.89;99786.02;1726573;83;21937;-83
2023/05/27 12:40:09;;;;;;;16.30;5.17;;;;;;;26.38;56.38;99804.82;1727302;83;21186;-82
2023/05/27 12:43:15;;;;;;;15.18;5.30;;;;;;;26.15;57.66;99796.59;1726931;83;21292;-82
2023/05/27 12:46:20;;;;;;;18.67;5.60;;;;;;;25.89;59.05;99795.95;1726868;83;21868;-83
2023/05/27 12:49:28;;;;;;;11.73;5.92;;;;;;;25.71;59.80;99798.25;1727386;83;21328;-82
2023/05/27 12:52:33;;;;;;;9.33;4.65;;;;;;;25.65;60.08;99784.58;1725939;83;21892;-82
2023/05/27 12:55:39;;;;;;;12.47;3.95;;;;;;;25.37;61.35;99773.52;1725360;83;22039;-82
2023/05/27 12:58:47;;;;;;;10.72;4.10;;;;;;;25.20;61.25;99776.09;1727304;83;21292;-82
2023/05/27 13:01:52;;;;;;;6.72;3.02;;;;;;;24.99;61.12;99771.68;1726320;83;21785;-83
2023/05/27 13:05:00;;;;;;;8.13;3.72;;;;;;;24.87;60.85;99779.53;1725902;83;21296;-82
2023/05/27 13:08:08;;;;;;;9.35;3.52;;;;;;;24.61;61.49;99785.19;1727193;83;21296;-82
2023/05/27 13:11:15;;;;;;;7.97;3.55;;;;;;;24.60;62.03;99782.09;1726837;83;21316;-82
2023/05/27 13:14:20;;;;;;;11.20;3.25;;;;;;;24.54;63.26;99793.02;1726520;83;21877;-83
2023/05/27 13:17:26;;;;;;;8.68;3.62;;;;;;;24.77;62.50;99799.14;1726105;83;21316;-82
2023/05/27 13:20:31;;;;;;;7.53;3.45;;;;;;;24.64;63.25;99791.59;1727315;83;21857;-82
2023/05/27 13:23:38;;;;;;;9.00;3.80;;;;;;;24.69;63.14;99789.35;1725866;83;21312;-82
2023/05/27 13:26:44;;;;;;;6.45;3.27;;;;;;;24.76;63.32;99791.88;1725705;83;21311;-82
2023/05/27 13:29:50;;;;;;;5.78;3.25;;;;;;;24.88;62.84;99793.79;1727135;83;21317;-82
2023/05/27 13:32:57;;;;;;;5.33;3.22;;;;;;;24.96;62.34;99791.25;1727117;83;21300;-82
2023/05/27 13:36:04;;;;;;;8.28;3.70;;;;;;;25.15;61.54;99785.91;1726832;83;21316;-82
2023/05/27 13:39:10;;;;;;;7.12;3.80;;;;;;;24.96;61.94;99782.03;1727083;83;21317;-82
2023/05/27 13:42:15;;;;;;;9.68;4.40;;;;;;;24.95;61.68;99781.76;1726359;83;21313;-82
2023/05/27 13:45:22;;;;;;;6.78;3.30;;;;;;;24.91;61.86;99776.45;1726126;83;21316;-82
2023/05/27 13:48:27;;;;;;;6.40;3.40;;;;;;;24.83;61.51;99774.22;1727338;83;21332;-82
2023/05/27 13:51:33;;;;;;;7.53;2.98;;;;;;;25.03;60.42;99763.00;1726819;83;21320;-82
2023/05/27 13:54:38;;;;;;;8.53;2.72;;;;;;;24.89;60.11;99766.95;1725887;83;21316;-82
2023/05/27 13:57:45;;;;;;;8.60;3.22;;;;;;;24.91;59.46;99763.86;1721997;83;21296;-82
2023/05/27 14:00:50;;;;;;;4.47;2.70;;;;;;;24.95;58.61;99764.41;1720545;83;21371;-82
2023/05/27 14:03:56;;;;;;;6.00;2.65;;;;;;;24.76;57.95;99768.11;1720549;83;21301;-81
2023/05/27 14:07:03;;;;;;;5.53;2.75;;;;;;;24.62;58.51;99763.09;1721004;83;21320;-82
2023/05/27 14:10:09;;;;;;;3.20;2.40;;;;;;;24.72;58.17;99754.68;1721541;83;21320;-82
2023/05/27 14:13:15;;;;;;;4.75;2.50;;;;;;;24.89;57.57;99760.49;1721970;83;21296;-82
2023/05/27 14:16:22;;;;;;;3.45;2.55;;;;;;;24.88;57.21;99763.86;1720873;83;21304;-82
2023/05/27 14:19:27;;;;;;;4.20;2.33;;;;;;;24.76;56.31;99762.52;1720561;83;21249;-83
2023/05/27 14:22:33;;;;;;;5.75;2.25;;;;;;;24.80;55.17;99749.64;1720746;83;21944;-82
2023/05/27 14:25:38;;;;;;;5.35;2.35;;;;;;;24.96;54.12;99747.89;1720947;83;21320;-82
2023/05/27 14:28:45;;;;;;;7.12;2.55;;;;;;;25.01;54.34;99754.03;1720588;83;21854;-83